sensor_id;sensor_type;location;lat;lon;timestamp;P1;durP1;ratioP1;P2;durP2;ratioP2
60225;SDS011;46090;48.436;11.410;2023-05-13T00:05:42;1.40;;;0.40;;
60225;SDS011;46090;48.436;11.410;2023-05-13T00:08:29;2.22;;;0.30;;
60225;SDS011;46090;48.436;11.410;2023-05-13T00:13:59;0.85;;;0.22;;
60225;SDS011;46090;48.436;11.410;2023-05-13T00:16:44;1.05;;;0.30;;
60225;SDS011;46090;48.436;11.410;2023-05-13T00:19:30;1.23;;;0.45;;
60225;SDS011;46090;48.436;11.410;2023-05-13T00:22:16;1.17;;;0.38;;
60225;SDS011;46090;48.436;11.410;2023-05-13T00:25:00;2.92;;;0.47;;
60225;SDS011;46090;48.436;11.410;2023-05-13T00:27:46;1.10;;;0.22;;
60225;SDS011;46090;48.436;11.410;2023-05-13T00:30:31;1.67;;;0.45;;
60225;SDS011;46090;48.436;11.410;2023-05-13T00:33:16;2.15;;;0.40;;
60225;SDS011;46090;48.436;11.410;2023-05-13T00:36:02;1.75;;;0.35;;
60225;SDS011;46090;48.436;11.410;2023-05-13T00:38:47;1.60;;;0.38;;
60225;SDS011;46090;48.436;11.410;2023-05-13T00:41:32;1.55;;;0.30;;
60225;SDS011;46090;48.436;11.410;2023-05-13T00:44:17;2.08;;;0.20;;
60225;SDS011;46090;48.436;11.410;2023-05-13T00:49:51;1.30;;;0.30;;
60225;SDS011;46090;48.436;11.410;2023-05-13T00:52:37;0.98;;;0.20;;
60225;SDS011;46090;48.436;11.410;2023-05-13T00:55:23;1.10;;;0.20;;
60225;SDS011;46090;48.436;11.410;2023-05-13T00:58:08;1.30;;;0.30;;
60225;SDS011;46090;48.436;11.410;2023-05-13T01:01:15;1.05;;;0.30;;
60225;SDS011;46090;48.436;11.410;2023-05-13T01:10:10;0.50;;;0.20;;
60225;SDS011;46090;48.436;11.410;2023-05-13T01:13:03;1.65;;;0.40;;
60225;SDS011;46090;48.436;11.410;2023-05-13T01:15:59;2.08;;;0.38;;
60225;SDS011;46090;48.436;11.410;2023-05-13T01:18:48;0.70;;;0.20;;
60225;SDS011;46090;48.436;11.410;2023-05-13T01:21:38;1.00;;;0.40;;
60225;SDS011;46090;48.436;11.410;2023-05-13T01:27:10;2.65;;;0.32;;
60225;SDS011;46090;48.436;11.410;2023-05-13T01:29:55;1.17;;;0.28;;
60225;SDS011;46090;48.436;11.410;2023-05-13T01:32:45;17.80;;;0.60;;
60225;SDS011;46090;48.436;11.410;2023-05-13T01:35:33;2.83;;;0.43;;
60225;SDS011;46090;48.436;11.410;2023-05-13T01:38:19;2.25;;;0.30;;
60225;SDS011;46090;48.436;11.410;2023-05-13T01:41:10;0.80;;;0.20;;
60225;SDS011;46090;48.436;11.410;2023-05-13T01:43:55;1.00;;;0.30;;
60225;SDS011;46090;48.436;11.410;2023-05-13T01:46:41;1.42;;;0.30;;
60225;SDS011;46090;48.436;11.410;2023-05-13T01:49:28;0.65;;;0.30;;
60225;SDS011;46090;48.436;11.410;2023-05-13T01:54:59;2.27;;;0.40;;
60225;SDS011;46090;48.436;11.410;2023-05-13T01:57:44;2.88;;;0.40;;
60225;SDS011;46090;48.436;11.410;2023-05-13T02:03:15;1.98;;;0.40;;
60225;SDS011;46090;48.436;11.410;2023-05-13T02:06:00;1.20;;;0.30;;
60225;SDS011;46090;48.436;11.410;2023-05-13T02:08:46;1.60;;;0.40;;
60225;SDS011;46090;48.436;11.410;2023-05-13T02:11:31;1.50;;;0.52;;
60225;SDS011;46090;48.436;11.410;2023-05-13T02:14:16;1.88;;;0.40;;
60225;SDS011;46090;48.436;11.410;2023-05-13T02:19:47;1.90;;;0.40;;
60225;SDS011;46090;48.436;11.410;2023-05-13T02:22:32;2.13;;;0.40;;
60225;SDS011;46090;48.436;11.410;2023-05-13T02:25:18;1.80;;;0.40;;
60225;SDS011;46090;48.436;11.410;2023-05-13T02:28:03;1.20;;;0.30;;
60225;SDS011;46090;48.436;11.410;2023-05-13T02:30:49;3.00;;;1.23;;
60225;SDS011;46090;48.436;11.410;2023-05-13T02:33:34;2.08;;;0.40;;
60225;SDS011;46090;48.436;11.410;2023-05-13T02:36:19;1.33;;;0.30;;
60225;SDS011;46090;48.436;11.410;2023-05-13T02:39:05;1.38;;;0.40;;
60225;SDS011;46090;48.436;11.410;2023-05-13T02:41:52;1.77;;;0.50;;
60225;SDS011;46090;48.436;11.410;2023-05-13T02:44:37;2.17;;;0.40;;
60225;SDS011;46090;48.436;11.410;2023-05-13T02:50:08;1.13;;;0.30;;
60225;SDS011;46090;48.436;11.410;2023-05-13T02:52:55;1.45;;;0.40;;
60225;SDS011;46090;48.436;11.410;2023-05-13T02:55:41;2.05;;;0.50;;
60225;SDS011;46090;48.436;11.410;2023-05-13T02:58:26;2.08;;;0.35;;
60225;SDS011;46090;48.436;11.410;2023-05-13T03:01:12;1.73;;;0.40;;
60225;SDS011;46090;48.436;11.410;2023-05-13T03:03:57;1.73;;;0.43;;
60225;SDS011;46090;48.436;11.410;2023-05-13T03:06:42;1.15;;;0.30;;
60225;SDS011;46090;48.436;11.410;2023-05-13T03:09:28;2.53;;;0.40;;
60225;SDS011;46090;48.436;11.410;2023-05-13T03:12:15;1.00;;;0.28;;
60225;SDS011;46090;48.436;11.410;2023-05-13T03:15:00;1.88;;;0.40;;
60225;SDS011;46090;48.436;11.410;2023-05-13T03:20:31;1.55;;;0.40;;
60225;SDS011;46090;48.436;11.410;2023-05-13T03:23:18;2.00;;;0.50;;
60225;SDS011;46090;48.436;11.410;2023-05-13T03:26:07;1.52;;;0.43;;
60225;SDS011;46090;48.436;11.410;2023-05-13T03:28:53;1.45;;;0.40;;
60225;SDS011;46090;48.436;11.410;2023-05-13T03:31:38;1.27;;;0.30;;
60225;SDS011;46090;48.436;11.410;2023-05-13T03:34:24;2.85;;;0.45;;
60225;SDS011;46090;48.436;11.410;2023-05-13T03:37:10;1.05;;;0.35;;
60225;SDS011;46090;48.436;11.410;2023-05-13T03:42:41;2.10;;;0.40;;
60225;SDS011;46090;48.436;11.410;2023-05-13T03:45:27;1.17;;;0.30;;
60225;SDS011;46090;48.436;11.410;2023-05-13T03:48:18;1.70;;;0.40;;
60225;SDS011;46090;48.436;11.410;2023-05-13T03:51:04;1.35;;;0.30;;
60225;SDS011;46090;48.436;11.410;2023-05-13T03:56:35;2.22;;;0.45;;
60225;SDS011;46090;48.436;11.410;2023-05-13T03:59:20;2.33;;;0.60;;
60225;SDS011;46090;48.436;11.410;2023-05-13T04:02:06;2.80;;;0.60;;
60225;SDS011;46090;48.436;11.410;2023-05-13T04:04:51;3.33;;;0.60;;
60225;SDS011;46090;48.436;11.410;2023-05-13T04:10:22;1.13;;;0.30;;
60225;SDS011;46090;48.436;11.410;2023-05-13T04:13:07;2.78;;;0.45;;
60225;SDS011;46090;48.436;11.410;2023-05-13T04:15:53;2.65;;;0.52;;
60225;SDS011;46090;48.436;11.410;2023-05-13T04:18:39;1.77;;;0.43;;
60225;SDS011;46090;48.436;11.410;2023-05-13T04:21:24;0.90;;;0.32;;
60225;SDS011;46090;48.436;11.410;2023-05-13T04:24:09;1.98;;;0.40;;
60225;SDS011;46090;48.436;11.410;2023-05-13T04:26:54;1.95;;;0.60;;
60225;SDS011;46090;48.436;11.410;2023-05-13T04:29:40;2.20;;;0.52;;
60225;SDS011;46090;48.436;11.410;2023-05-13T04:32:26;1.67;;;0.50;;
60225;SDS011;46090;48.436;11.410;2023-05-13T04:35:12;2.47;;;0.80;;
60225;SDS011;46090;48.436;11.410;2023-05-13T04:38:01;2.97;;;0.80;;
60225;SDS011;46090;48.436;11.410;2023-05-13T04:40:46;3.53;;;1.00;;
60225;SDS011;46090;48.436;11.410;2023-05-13T04:43:37;5.57;;;2.00;;
60225;SDS011;46090;48.436;11.410;2023-05-13T04:49:09;1.92;;;0.55;;
60225;SDS011;46090;48.436;11.410;2023-05-13T04:54:41;2.65;;;0.88;;
60225;SDS011;46090;48.436;11.410;2023-05-13T04:57:26;3.38;;;0.73;;
60225;SDS011;46090;48.436;11.410;2023-05-13T05:02:58;2.70;;;0.55;;
60225;SDS011;46090;48.436;11.410;2023-05-13T05:08:31;8.23;;;1.33;;
60225;SDS011;46090;48.436;11.410;2023-05-13T05:11:17;4.63;;;0.88;;
60225;SDS011;46090;48.436;11.410;2023-05-13T05:16:47;10.80;;;1.60;;
60225;SDS011;46090;48.436;11.410;2023-05-13T05:19:33;5.45;;;1.20;;
60225;SDS011;46090;48.436;11.410;2023-05-13T05:22:19;2.42;;;0.60;;
60225;SDS011;46090;48.436;11.410;2023-05-13T05:25:04;7.13;;;0.70;;
60225;SDS011;46090;48.436;11.410;2023-05-13T05:27:50;5.18;;;0.85;;
60225;SDS011;46090;48.436;11.410;2023-05-13T05:30:36;4.40;;;0.60;;
60225;SDS011;46090;48.436;11.410;2023-05-13T05:33:29;4.68;;;1.00;;
60225;SDS011;46090;48.436;11.410;2023-05-13T05:36:15;7.72;;;1.10;;
60225;SDS011;46090;48.436;11.410;2023-05-13T05:39:01;11.07;;;1.30;;
60225;SDS011;46090;48.436;11.410;2023-05-13T05:41:49;6.07;;;0.80;;
60225;SDS011;46090;48.436;11.410;2023-05-13T05:44:35;3.63;;;0.60;;
60225;SDS011;46090;48.436;11.410;2023-05-13T05:47:20;6.60;;;1.00;;
60225;SDS011;46090;48.436;11.410;2023-05-13T05:50:06;6.10;;;1.25;;
60225;SDS011;46090;48.436;11.410;2023-05-13T05:52:51;6.40;;;0.73;;
60225;SDS011;46090;48.436;11.410;2023-05-13T05:55:37;3.67;;;0.90;;
60225;SDS011;46090;48.436;11.410;2023-05-13T05:58:23;7.43;;;0.95;;
60225;SDS011;46090;48.436;11.410;2023-05-13T06:01:10;3.13;;;0.80;;
60225;SDS011;46090;48.436;11.410;2023-05-13T06:06:41;5.38;;;0.90;;
60225;SDS011;46090;48.436;11.410;2023-05-13T06:09:27;7.78;;;1.20;;
60225;SDS011;46090;48.436;11.410;2023-05-13T06:12:12;4.18;;;0.70;;
60225;SDS011;46090;48.436;11.410;2023-05-13T06:14:58;7.82;;;0.93;;
60225;SDS011;46090;48.436;11.410;2023-05-13T06:17:43;4.70;;;1.00;;
60225;SDS011;46090;48.436;11.410;2023-05-13T06:20:28;3.30;;;0.73;;
60225;SDS011;46090;48.436;11.410;2023-05-13T06:25:59;7.18;;;0.90;;
60225;SDS011;46090;48.436;11.410;2023-05-13T06:28:44;4.97;;;1.20;;
60225;SDS011;46090;48.436;11.410;2023-05-13T06:31:30;2.83;;;0.98;;
60225;SDS011;46090;48.436;11.410;2023-05-13T06:34:15;8.55;;;1.17;;
60225;SDS011;46090;48.436;11.410;2023-05-13T06:39:46;3.63;;;0.77;;
60225;SDS011;46090;48.436;11.410;2023-05-13T06:42:32;4.95;;;0.95;;
60225;SDS011;46090;48.436;11.410;2023-05-13T06:45:28;7.20;;;1.00;;
60225;SDS011;46090;48.436;11.410;2023-05-13T06:51:00;2.47;;;0.80;;
60225;SDS011;46090;48.436;11.410;2023-05-13T06:53:44;5.18;;;0.90;;
60225;SDS011;46090;48.436;11.410;2023-05-13T06:56:30;2.25;;;0.60;;
60225;SDS011;46090;48.436;11.410;2023-05-13T06:59:15;7.65;;;1.08;;
60225;SDS011;46090;48.436;11.410;2023-05-13T07:04:45;4.53;;;0.93;;
60225;SDS011;46090;48.436;11.410;2023-05-13T07:07:30;5.53;;;0.75;;
60225;SDS011;46090;48.436;11.410;2023-05-13T07:10:16;4.70;;;0.90;;
60225;SDS011;46090;48.436;11.410;2023-05-13T07:15:46;6.03;;;1.33;;
60225;SDS011;46090;48.436;11.410;2023-05-13T07:18:32;5.07;;;0.90;;
60225;SDS011;46090;48.436;11.410;2023-05-13T07:21:18;4.18;;;1.00;;
60225;SDS011;46090;48.436;11.410;2023-05-13T07:24:03;6.32;;;0.93;;
60225;SDS011;46090;48.436;11.410;2023-05-13T07:26:49;6.05;;;1.08;;
60225;SDS011;46090;48.436;11.410;2023-05-13T07:29:34;5.65;;;1.02;;
60225;SDS011;46090;48.436;11.410;2023-05-13T07:35:05;6.05;;;1.25;;
60225;SDS011;46090;48.436;11.410;2023-05-13T07:37:50;3.17;;;0.82;;
60225;SDS011;46090;48.436;11.410;2023-05-13T07:40:36;5.68;;;1.30;;
60225;SDS011;46090;48.436;11.410;2023-05-13T07:43:21;6.00;;;1.42;;
60225;SDS011;46090;48.436;11.410;2023-05-13T07:46:10;8.98;;;1.83;;
60225;SDS011;46090;48.436;11.410;2023-05-13T07:51:41;5.25;;;1.42;;
60225;SDS011;46090;48.436;11.410;2023-05-13T07:54:26;8.60;;;1.10;;
60225;SDS011;46090;48.436;11.410;2023-05-13T07:57:12;5.88;;;1.20;;
60225;SDS011;46090;48.436;11.410;2023-05-13T07:59:57;7.30;;;1.42;;
60225;SDS011;46090;48.436;11.410;2023-05-13T08:02:42;8.82;;;1.45;;
60225;SDS011;46090;48.436;11.410;2023-05-13T08:05:27;5.40;;;1.02;;
60225;SDS011;46090;48.436;11.410;2023-05-13T08:08:13;5.82;;;1.10;;
60225;SDS011;46090;48.436;11.410;2023-05-13T08:10:58;8.27;;;1.23;;
60225;SDS011;46090;48.436;11.410;2023-05-13T08:13:43;5.38;;;1.23;;
60225;SDS011;46090;48.436;11.410;2023-05-13T08:16:28;5.95;;;1.20;;
60225;SDS011;46090;48.436;11.410;2023-05-13T08:21:59;9.00;;;1.77;;
60225;SDS011;46090;48.436;11.410;2023-05-13T08:27:30;5.50;;;1.33;;
60225;SDS011;46090;48.436;11.410;2023-05-13T08:33:00;6.03;;;1.42;;
60225;SDS011;46090;48.436;11.410;2023-05-13T08:35:45;7.90;;;1.35;;
60225;SDS011;46090;48.436;11.410;2023-05-13T08:38:30;5.32;;;1.27;;
60225;SDS011;46090;48.436;11.410;2023-05-13T08:41:17;5.88;;;1.27;;
60225;SDS011;46090;48.436;11.410;2023-05-13T08:44:05;2.58;;;0.95;;
60225;SDS011;46090;48.436;11.410;2023-05-13T08:46:52;5.65;;;1.02;;
60225;SDS011;46090;48.436;11.410;2023-05-13T08:49:46;8.57;;;1.20;;
60225;SDS011;46090;48.436;11.410;2023-05-13T08:52:32;3.45;;;1.00;;
60225;SDS011;46090;48.436;11.410;2023-05-13T08:55:17;6.30;;;1.23;;
60225;SDS011;46090;48.436;11.410;2023-05-13T08:58:03;6.90;;;1.42;;
60225;SDS011;46090;48.436;11.410;2023-05-13T09:00:48;6.03;;;1.15;;
60225;SDS011;46090;48.436;11.410;2023-05-13T09:03:34;4.85;;;1.20;;
60225;SDS011;46090;48.436;11.410;2023-05-13T09:06:25;4.43;;;1.10;;
60225;SDS011;46090;48.436;11.410;2023-05-13T09:09:10;2.97;;;0.90;;
60225;SDS011;46090;48.436;11.410;2023-05-13T09:11:56;8.23;;;1.10;;
60225;SDS011;46090;48.436;11.410;2023-05-13T09:14:41;4.90;;;1.00;;
60225;SDS011;46090;48.436;11.410;2023-05-13T09:20:12;2.33;;;0.75;;
60225;SDS011;46090;48.436;11.410;2023-05-13T09:22:59;7.20;;;0.90;;
60225;SDS011;46090;48.436;11.410;2023-05-13T09:25:46;3.70;;;0.90;;
60225;SDS011;46090;48.436;11.410;2023-05-13T09:28:31;3.00;;;0.60;;
60225;SDS011;46090;48.436;11.410;2023-05-13T09:31:30;3.58;;;0.80;;
60225;SDS011;46090;48.436;11.410;2023-05-13T09:34:26;4.05;;;1.00;;
60225;SDS011;46090;48.436;11.410;2023-05-13T09:37:16;4.88;;;1.00;;
60225;SDS011;46090;48.436;11.410;2023-05-13T09:40:02;6.20;;;1.25;;
60225;SDS011;46090;48.436;11.410;2023-05-13T09:42:47;3.65;;;0.88;;
60225;SDS011;46090;48.436;11.410;2023-05-13T09:45:33;4.53;;;0.73;;
60225;SDS011;46090;48.436;11.410;2023-05-13T09:48:19;3.15;;;0.90;;
60225;SDS011;46090;48.436;11.410;2023-05-13T09:51:05;3.75;;;0.63;;
60225;SDS011;46090;48.436;11.410;2023-05-13T09:53:50;2.22;;;0.80;;
60225;SDS011;46090;48.436;11.410;2023-05-13T09:56:35;4.25;;;0.80;;
60225;SDS011;46090;48.436;11.410;2023-05-13T09:59:21;3.83;;;0.80;;
60225;SDS011;46090;48.436;11.410;2023-05-13T10:02:06;3.20;;;0.80;;
60225;SDS011;46090;48.436;11.410;2023-05-13T10:04:52;3.28;;;0.70;;
60225;SDS011;46090;48.436;11.410;2023-05-13T10:07:39;4.53;;;0.80;;
60225;SDS011;46090;48.436;11.410;2023-05-13T10:10:26;3.53;;;0.90;;
60225;SDS011;46090;48.436;11.410;2023-05-13T10:13:14;5.13;;;1.02;;
60225;SDS011;46090;48.436;11.410;2023-05-13T10:16:00;4.20;;;1.08;;
60225;SDS011;46090;48.436;11.410;2023-05-13T10:18:46;5.07;;;1.02;;
60225;SDS011;46090;48.436;11.410;2023-05-13T10:21:32;3.90;;;0.85;;
60225;SDS011;46090;48.436;11.410;2023-05-13T10:24:17;2.88;;;0.75;;
60225;SDS011;46090;48.436;11.410;2023-05-13T10:27:03;3.28;;;0.95;;
60225;SDS011;46090;48.436;11.410;2023-05-13T10:29:50;2.72;;;0.80;;
60225;SDS011;46090;48.436;11.410;2023-05-13T10:32:37;6.53;;;1.10;;
60225;SDS011;46090;48.436;11.410;2023-05-13T10:35:25;6.10;;;0.80;;
60225;SDS011;46090;48.436;11.410;2023-05-13T10:41:24;4.05;;;0.88;;
60225;SDS011;46090;48.436;11.410;2023-05-13T10:44:33;3.63;;;0.73;;
60225;SDS011;46090;48.436;11.410;2023-05-13T10:47:19;3.72;;;0.90;;
60225;SDS011;46090;48.436;11.410;2023-05-13T10:50:05;4.25;;;1.00;;
60225;SDS011;46090;48.436;11.410;2023-05-13T10:52:54;7.50;;;1.50;;
60225;SDS011;46090;48.436;11.410;2023-05-13T10:55:43;3.75;;;0.90;;
60225;SDS011;46090;48.436;11.410;2023-05-13T10:58:30;3.63;;;0.80;;
60225;SDS011;46090;48.436;11.410;2023-05-13T11:01:17;7.28;;;1.10;;
60225;SDS011;46090;48.436;11.410;2023-05-13T11:04:04;2.92;;;0.65;;
60225;SDS011;46090;48.436;11.410;2023-05-13T11:06:50;6.50;;;1.00;;
60225;SDS011;46090;48.436;11.410;2023-05-13T11:09:36;3.50;;;0.80;;
60225;SDS011;46090;48.436;11.410;2023-05-13T11:12:21;2.83;;;0.90;;
60225;SDS011;46090;48.436;11.410;2023-05-13T11:18:04;6.22;;;1.02;;
60225;SDS011;46090;48.436;11.410;2023-05-13T11:20:52;3.67;;;0.65;;
60225;SDS011;46090;48.436;11.410;2023-05-13T11:26:49;3.33;;;0.77;;
60225;SDS011;46090;48.436;11.410;2023-05-13T11:29:36;3.88;;;0.98;;
60225;SDS011;46090;48.436;11.410;2023-05-13T11:32:46;6.18;;;0.90;;
60225;SDS011;46090;48.436;11.410;2023-05-13T11:35:37;3.70;;;0.80;;
60225;SDS011;46090;48.436;11.410;2023-05-13T11:38:22;4.93;;;1.02;;
60225;SDS011;46090;48.436;11.410;2023-05-13T11:41:09;3.40;;;0.70;;
60225;SDS011;46090;48.436;11.410;2023-05-13T11:43:55;4.78;;;0.90;;
60225;SDS011;46090;48.436;11.410;2023-05-13T11:52:28;3.53;;;0.68;;
60225;SDS011;46090;48.436;11.410;2023-05-13T11:55:13;5.63;;;0.85;;
60225;SDS011;46090;48.436;11.410;2023-05-13T11:58:12;2.33;;;0.50;;
60225;SDS011;46090;48.436;11.410;2023-05-13T12:00:57;3.00;;;0.60;;
60225;SDS011;46090;48.436;11.410;2023-05-13T12:03:43;3.03;;;0.98;;
60225;SDS011;46090;48.436;11.410;2023-05-13T12:06:28;4.82;;;0.75;;
60225;SDS011;46090;48.436;11.410;2023-05-13T12:11:59;4.32;;;0.70;;
60225;SDS011;46090;48.436;11.410;2023-05-13T12:17:30;3.22;;;0.60;;
60225;SDS011;46090;48.436;11.410;2023-05-13T12:20:17;4.63;;;0.60;;
60225;SDS011;46090;48.436;11.410;2023-05-13T12:23:03;2.80;;;0.50;;
60225;SDS011;46090;48.436;11.410;2023-05-13T12:25:50;2.65;;;0.50;;
60225;SDS011;46090;48.436;11.410;2023-05-13T12:31:21;2.70;;;0.50;;
60225;SDS011;46090;48.436;11.410;2023-05-13T12:34:07;4.30;;;0.65;;
60225;SDS011;46090;48.436;11.410;2023-05-13T12:36:53;3.45;;;0.50;;
60225;SDS011;46090;48.436;11.410;2023-05-13T12:39:39;2.10;;;0.40;;
60225;SDS011;46090;48.436;11.410;2023-05-13T12:42:25;2.35;;;0.63;;
60225;SDS011;46090;48.436;11.410;2023-05-13T12:45:10;3.38;;;0.50;;
60225;SDS011;46090;48.436;11.410;2023-05-13T12:47:56;6.10;;;0.50;;
60225;SDS011;46090;48.436;11.410;2023-05-13T12:50:42;2.15;;;0.50;;
60225;SDS011;46090;48.436;11.410;2023-05-13T12:53:27;3.03;;;0.40;;
60225;SDS011;46090;48.436;11.410;2023-05-13T12:58:58;1.38;;;0.40;;
60225;SDS011;46090;48.436;11.410;2023-05-13T13:01:44;2.55;;;0.50;;
60225;SDS011;46090;48.436;11.410;2023-05-13T13:04:32;1.23;;;0.25;;
60225;SDS011;46090;48.436;11.410;2023-05-13T13:07:16;2.47;;;0.38;;
60225;SDS011;46090;48.436;11.410;2023-05-13T13:10:03;2.53;;;0.30;;
60225;SDS011;46090;48.436;11.410;2023-05-13T13:12:50;2.88;;;0.30;;
60225;SDS011;46090;48.436;11.410;2023-05-13T13:15:36;1.58;;;0.30;;
60225;SDS011;46090;48.436;11.410;2023-05-13T13:18:21;2.10;;;0.30;;
60225;SDS011;46090;48.436;11.410;2023-05-13T13:21:08;3.38;;;0.40;;
60225;SDS011;46090;48.436;11.410;2023-05-13T13:23:53;2.58;;;0.50;;
60225;SDS011;46090;48.436;11.410;2023-05-13T13:29:24;2.20;;;0.40;;
60225;SDS011;46090;48.436;11.410;2023-05-13T13:34:55;0.75;;;0.22;;
60225;SDS011;46090;48.436;11.410;2023-05-13T13:37:41;2.25;;;0.47;;
60225;SDS011;46090;48.436;11.410;2023-05-13T13:40:26;2.40;;;0.30;;
60225;SDS011;46090;48.436;11.410;2023-05-13T13:43:12;1.63;;;0.35;;
60225;SDS011;46090;48.436;11.410;2023-05-13T13:45:57;0.95;;;0.30;;
60225;SDS011;46090;48.436;11.410;2023-05-13T13:48:42;3.50;;;0.40;;
60225;SDS011;46090;48.436;11.410;2023-05-13T13:51:27;1.92;;;0.40;;
60225;SDS011;46090;48.436;11.410;2023-05-13T13:54:12;2.08;;;0.40;;
60225;SDS011;46090;48.436;11.410;2023-05-13T13:56:57;3.92;;;0.35;;
60225;SDS011;46090;48.436;11.410;2023-05-13T13:59:43;0.82;;;0.30;;
60225;SDS011;46090;48.436;11.410;2023-05-13T14:02:27;2.00;;;0.35;;
60225;SDS011;46090;48.436;11.410;2023-05-13T14:05:13;2.45;;;0.32;;
60225;SDS011;46090;48.436;11.410;2023-05-13T14:07:59;1.00;;;0.40;;
60225;SDS011;46090;48.436;11.410;2023-05-13T14:10:44;1.88;;;0.38;;
60225;SDS011;46090;48.436;11.410;2023-05-13T14:13:30;1.50;;;0.30;;
60225;SDS011;46090;48.436;11.410;2023-05-13T14:16:15;1.92;;;0.40;;
60225;SDS011;46090;48.436;11.410;2023-05-13T14:19:00;1.20;;;0.30;;
60225;SDS011;46090;48.436;11.410;2023-05-13T14:21:46;1.40;;;0.30;;
60225;SDS011;46090;48.436;11.410;2023-05-13T14:24:31;1.65;;;0.30;;
60225;SDS011;46090;48.436;11.410;2023-05-13T14:27:17;1.15;;;0.30;;
60225;SDS011;46090;48.436;11.410;2023-05-13T14:30:03;0.93;;;0.30;;
60225;SDS011;46090;48.436;11.410;2023-05-13T14:32:49;2.03;;;0.40;;
60225;SDS011;46090;48.436;11.410;2023-05-13T14:35:35;3.05;;;0.35;;
60225;SDS011;46090;48.436;11.410;2023-05-13T14:38:20;1.20;;;0.20;;
60225;SDS011;46090;48.436;11.410;2023-05-13T14:41:05;1.13;;;0.22;;
60225;SDS011;46090;48.436;11.410;2023-05-13T14:43:50;1.10;;;0.30;;
60225;SDS011;46090;48.436;11.410;2023-05-13T14:46:35;0.90;;;0.20;;
60225;SDS011;46090;48.436;11.410;2023-05-13T14:49:22;2.72;;;0.30;;
60225;SDS011;46090;48.436;11.410;2023-05-13T14:52:07;0.82;;;0.22;;
60225;SDS011;46090;48.436;11.410;2023-05-13T14:54:52;1.35;;;0.35;;
60225;SDS011;46090;48.436;11.410;2023-05-13T14:57:38;1.02;;;0.20;;
60225;SDS011;46090;48.436;11.410;2023-05-13T15:00:23;1.25;;;0.30;;
60225;SDS011;46090;48.436;11.410;2023-05-13T15:03:08;1.55;;;0.40;;
60225;SDS011;46090;48.436;11.410;2023-05-13T15:05:54;1.85;;;0.30;;
60225;SDS011;46090;48.436;11.410;2023-05-13T15:08:40;1.05;;;0.30;;
60225;SDS011;46090;48.436;11.410;2023-05-13T15:11:26;1.60;;;0.40;;
60225;SDS011;46090;48.436;11.410;2023-05-13T15:14:14;1.02;;;0.30;;
60225;SDS011;46090;48.436;11.410;2023-05-13T15:17:01;1.85;;;0.30;;
60225;SDS011;46090;48.436;11.410;2023-05-13T15:19:47;0.82;;;0.30;;
60225;SDS011;46090;48.436;11.410;2023-05-13T15:22:32;1.50;;;0.30;;
60225;SDS011;46090;48.436;11.410;2023-05-13T15:25:18;0.80;;;0.25;;
60225;SDS011;46090;48.436;11.410;2023-05-13T15:28:03;1.40;;;0.30;;
60225;SDS011;46090;48.436;11.410;2023-05-13T15:30:48;0.80;;;0.30;;
60225;SDS011;46090;48.436;11.410;2023-05-13T15:33:33;1.67;;;0.40;;
60225;SDS011;46090;48.436;11.410;2023-05-13T15:36:19;0.68;;;0.20;;
60225;SDS011;46090;48.436;11.410;2023-05-13T15:39:04;0.82;;;0.20;;
60225;SDS011;46090;48.436;11.410;2023-05-13T15:44:34;1.15;;;0.30;;
60225;SDS011;46090;48.436;11.410;2023-05-13T15:47:20;3.38;;;0.70;;
60225;SDS011;46090;48.436;11.410;2023-05-13T15:50:05;1.55;;;0.50;;
60225;SDS011;46090;48.436;11.410;2023-05-13T15:52:51;2.50;;;0.50;;
60225;SDS011;46090;48.436;11.410;2023-05-13T15:55:38;4.53;;;0.70;;
60225;SDS011;46090;48.436;11.410;2023-05-13T15:58:23;6.72;;;0.55;;
60225;SDS011;46090;48.436;11.410;2023-05-13T16:01:09;7.10;;;0.60;;
60225;SDS011;46090;48.436;11.410;2023-05-13T16:03:54;5.85;;;0.60;;
60225;SDS011;46090;48.436;11.410;2023-05-13T16:06:39;4.25;;;0.60;;
60225;SDS011;46090;48.436;11.410;2023-05-13T16:12:09;6.00;;;0.90;;
60225;SDS011;46090;48.436;11.410;2023-05-13T16:14:54;4.78;;;0.85;;
60225;SDS011;46090;48.436;11.410;2023-05-13T16:17:39;4.53;;;0.80;;
60225;SDS011;46090;48.436;11.410;2023-05-13T16:20:25;3.85;;;0.60;;
60225;SDS011;46090;48.436;11.410;2023-05-13T16:23:10;5.93;;;1.08;;
60225;SDS011;46090;48.436;11.410;2023-05-13T16:25:55;4.90;;;1.00;;
60225;SDS011;46090;48.436;11.410;2023-05-13T16:28:40;10.02;;;1.10;;
60225;SDS011;46090;48.436;11.410;2023-05-13T16:31:25;3.40;;;0.70;;
60225;SDS011;46090;48.436;11.410;2023-05-13T16:34:10;4.40;;;0.55;;
60225;SDS011;46090;48.436;11.410;2023-05-13T16:36:56;4.25;;;0.90;;
60225;SDS011;46090;48.436;11.410;2023-05-13T16:39:43;4.43;;;0.55;;
60225;SDS011;46090;48.436;11.410;2023-05-13T16:45:13;3.13;;;0.60;;
60225;SDS011;46090;48.436;11.410;2023-05-13T16:47:58;9.40;;;1.40;;
60225;SDS011;46090;48.436;11.410;2023-05-13T16:50:44;8.13;;;0.95;;
60225;SDS011;46090;48.436;11.410;2023-05-13T16:53:29;6.70;;;0.80;;
60225;SDS011;46090;48.436;11.410;2023-05-13T16:56:14;5.63;;;0.60;;
60225;SDS011;46090;48.436;11.410;2023-05-13T16:59:00;3.80;;;0.98;;
60225;SDS011;46090;48.436;11.410;2023-05-13T17:04:30;3.67;;;0.77;;
60225;SDS011;46090;48.436;11.410;2023-05-13T17:07:16;3.70;;;0.70;;
60225;SDS011;46090;48.436;11.410;2023-05-13T17:10:01;4.38;;;0.50;;
60225;SDS011;46090;48.436;11.410;2023-05-13T17:12:46;8.98;;;0.60;;
60225;SDS011;46090;48.436;11.410;2023-05-13T17:15:31;9.65;;;0.90;;
60225;SDS011;46090;48.436;11.410;2023-05-13T17:21:01;4.45;;;0.70;;
60225;SDS011;46090;48.436;11.410;2023-05-13T17:23:47;4.55;;;0.63;;
60225;SDS011;46090;48.436;11.410;2023-05-13T17:26:32;3.42;;;0.70;;
60225;SDS011;46090;48.436;11.410;2023-05-13T17:29:20;3.65;;;0.70;;
60225;SDS011;46090;48.436;11.410;2023-05-13T17:32:07;3.30;;;0.60;;
60225;SDS011;46090;48.436;11.410;2023-05-13T17:34:52;3.55;;;0.57;;
60225;SDS011;46090;48.436;11.410;2023-05-13T17:40:23;2.85;;;0.57;;
60225;SDS011;46090;48.436;11.410;2023-05-13T17:43:09;4.25;;;0.85;;
60225;SDS011;46090;48.436;11.410;2023-05-13T17:45:54;8.02;;;0.68;;
60225;SDS011;46090;48.436;11.410;2023-05-13T17:48:39;3.20;;;0.50;;
60225;SDS011;46090;48.436;11.410;2023-05-13T17:54:09;4.82;;;0.70;;
60225;SDS011;46090;48.436;11.410;2023-05-13T17:59:40;3.25;;;0.70;;
60225;SDS011;46090;48.436;11.410;2023-05-13T18:02:26;11.00;;;0.70;;
60225;SDS011;46090;48.436;11.410;2023-05-13T18:05:11;4.82;;;0.90;;
60225;SDS011;46090;48.436;11.410;2023-05-13T18:07:56;3.97;;;0.90;;
60225;SDS011;46090;48.436;11.410;2023-05-13T18:10:42;5.53;;;0.88;;
60225;SDS011;46090;48.436;11.410;2023-05-13T18:13:27;4.68;;;0.70;;
60225;SDS011;46090;48.436;11.410;2023-05-13T18:16:13;4.18;;;0.70;;
60225;SDS011;46090;48.436;11.410;2023-05-13T18:19:01;6.35;;;0.80;;
60225;SDS011;46090;48.436;11.410;2023-05-13T18:21:46;8.30;;;0.80;;
60225;SDS011;46090;48.436;11.410;2023-05-13T18:24:32;4.15;;;0.57;;
60225;SDS011;46090;48.436;11.410;2023-05-13T18:27:17;4.15;;;0.57;;
60225;SDS011;46090;48.436;11.410;2023-05-13T18:30:02;6.30;;;1.00;;
60225;SDS011;46090;48.436;11.410;2023-05-13T18:32:47;5.97;;;0.85;;
60225;SDS011;46090;48.436;11.410;2023-05-13T18:35:32;5.32;;;0.70;;
60225;SDS011;46090;48.436;11.410;2023-05-13T18:38:17;5.47;;;0.70;;
60225;SDS011;46090;48.436;11.410;2023-05-13T18:41:03;2.78;;;0.60;;
60225;SDS011;46090;48.436;11.410;2023-05-13T18:43:48;6.57;;;0.93;;
60225;SDS011;46090;48.436;11.410;2023-05-13T18:46:33;3.90;;;0.50;;